Terminal Aerodrome Forecast
Issued by NWS

Home | Current Version | Previous Version | Text Only | Print | Product List | Glossary On
Versions: 1 2 3 4 5 6 7 8 9 10 11 12 13 14 15 16 17 18 19 20 21 22 23 24 25
345
FTUS41 KALY 301134 CCB
TAFPSF
TAF COR
KPSF 301134Z 3012/0112 05010G17KT P6SM SCT020 BKN100
      TEMPO 3012/3016 BKN020 OVC100
     FM301800 07011KT P6SM -RA SCT025 OVC040
     FM302000 06007KT 4SM -RA SCT015 OVC025
     FM010300 06007KT 2SM -SHRA BR OVC007=

USA.gov is the U.S. government's official web portal to all federal, state and local government web resources and services.